Higham Ferrers, United Kingdom
Current Conditions -  °F | °C
As of 4:50 PM on Sunday 21 Dec 2014 (Local Time) from EGTC Reporting Station
Broken Clouds Broken Clouds  
Wind Chill: 41°   Ceiling: 1100
Heat Index: 48°   Visibility: 6mi
Dew Point: 46°   Wind: 23mph
Humidity: 93%   Direction: 240°WSW
Pressure: 30.15"   Gusts: 35mph
Location:  52.31°N, 0.59°W
Report Text: EGTC 211650Z 24020G30KT 9999 BKN011 09/08 Q1021
Loading
Personal Weather Stations






























Interactive Weather Map New forecast layout! Learn more

10-Day Weather Forecast

Advertisements
Track Severe Weather on mobile